sensor_id;sensor_type;location;lat;lon;timestamp;pressure;altitude;pressure_sealevel;temperature;humidity
46007;BME280;31738;50.188;8.524;2024-01-06T00:00:13;97565.50;;;6.19;85.68
46007;BME280;31738;50.188;8.524;2024-01-06T00:02:41;97571.59;;;6.19;85.78
46007;BME280;31738;50.188;8.524;2024-01-06T00:05:15;97570.28;;;6.22;85.59
46007;BME280;31738;50.188;8.524;2024-01-06T00:07:47;97563.88;;;6.23;85.54
46007;BME280;31738;50.188;8.524;2024-01-06T00:10:17;97562.28;;;6.22;85.93
46007;BME280;31738;50.188;8.524;2024-01-06T00:12:43;97566.53;;;6.23;85.53
46007;BME280;31738;50.188;8.524;2024-01-06T00:15:09;97565.50;;;6.24;85.58
46007;BME280;31738;50.188;8.524;2024-01-06T00:17:49;97573.19;;;6.25;85.36
46007;BME280;31738;50.188;8.524;2024-01-06T00:20:18;97578.78;;;6.24;85.64
46007;BME280;31738;50.188;8.524;2024-01-06T00:22:44;97578.78;;;6.24;86.15
46007;BME280;31738;50.188;8.524;2024-01-06T00:25:16;97577.72;;;6.25;85.81
46007;BME280;31738;50.188;8.524;2024-01-06T00:27:42;97577.72;;;6.25;85.62
46007;BME280;31738;50.188;8.524;2024-01-06T00:30:18;97579.03;;;6.27;85.81
46007;BME280;31738;50.188;8.524;2024-01-06T00:32:49;97573.69;;;6.27;86.16
46007;BME280;31738;50.188;8.524;2024-01-06T00:35:17;97574.50;;;6.28;85.80
46007;BME280;31738;50.188;8.524;2024-01-06T00:37:48;97581.41;;;6.29;85.82
46007;BME280;31738;50.188;8.524;2024-01-06T00:40:25;97574.50;;;6.28;86.00
46007;BME280;31738;50.188;8.524;2024-01-06T00:42:51;97571.03;;;6.27;85.90
46007;BME280;31738;50.188;8.524;2024-01-06T00:45:17;97571.84;;;6.28;85.84
46007;BME280;31738;50.188;8.524;2024-01-06T00:47:43;97562.78;;;6.29;85.85
46007;BME280;31738;50.188;8.524;2024-01-06T00:50:08;97559.34;;;6.28;86.04
46007;BME280;31738;50.188;8.524;2024-01-06T00:52:34;97559.63;;;6.27;86.37
46007;BME280;31738;50.188;8.524;2024-01-06T00:54:59;97563.31;;;6.26;85.76
46007;BME280;31738;50.188;8.524;2024-01-06T00:57:25;97560.94;;;6.24;85.74
46007;BME280;31738;50.188;8.524;2024-01-06T00:59:50;97568.16;;;6.24;85.76
46007;BME280;31738;50.188;8.524;2024-01-06T01:02:16;97555.34;;;6.21;85.74
46007;BME280;31738;50.188;8.524;2024-01-06T01:04:41;97558.03;;;6.21;86.07
46007;BME280;31738;50.188;8.524;2024-01-06T01:07:07;97559.38;;;6.18;85.83
46007;BME280;31738;50.188;8.524;2024-01-06T01:09:32;97571.38;;;6.16;86.30
46007;BME280;31738;50.188;8.524;2024-01-06T01:11:58;97564.44;;;6.15;85.71
46007;BME280;31738;50.188;8.524;2024-01-06T01:14:23;97577.25;;;6.13;86.09
46007;BME280;31738;50.188;8.524;2024-01-06T01:16:49;97569.53;;;6.11;85.85
46007;BME280;31738;50.188;8.524;2024-01-06T01:19:14;97573.25;;;6.10;85.56
46007;BME280;31738;50.188;8.524;2024-01-06T01:21:40;97574.31;;;6.09;85.71
46007;BME280;31738;50.188;8.524;2024-01-06T01:24:05;97587.91;;;6.08;85.74
46007;BME280;31738;50.188;8.524;2024-01-06T01:26:30;97585.78;;;6.05;85.71
46007;BME280;31738;50.188;8.524;2024-01-06T01:28:56;97588.44;;;6.05;85.78
46007;BME280;31738;50.188;8.524;2024-01-06T01:31:21;97588.44;;;6.05;85.39
46007;BME280;31738;50.188;8.524;2024-01-06T01:33:47;97587.38;;;6.06;85.81
46007;BME280;31738;50.188;8.524;2024-01-06T01:36:12;97595.88;;;6.08;85.54
46007;BME280;31738;50.188;8.524;2024-01-06T01:38:38;97608.94;;;6.09;85.50
46007;BME280;31738;50.188;8.524;2024-01-06T01:41:03;97613.16;;;6.10;85.59
46007;BME280;31738;50.188;8.524;2024-01-06T01:43:29;97615.06;;;6.10;85.60
46007;BME280;31738;50.188;8.524;2024-01-06T01:45:55;97616.38;;;6.12;85.30
46007;BME280;31738;50.188;8.524;2024-01-06T01:48:22;97617.94;;;6.13;85.62
46007;BME280;31738;50.188;8.524;2024-01-06T01:50:48;97631.81;;;6.10;85.45
46007;BME280;31738;50.188;8.524;2024-01-06T01:53:13;97627.56;;;6.04;85.78
46007;BME280;31738;50.188;8.524;2024-01-06T01:55:40;97634.22;;;6.02;85.70
46007;BME280;31738;50.188;8.524;2024-01-06T01:58:06;97635.06;;;5.97;85.43
46007;BME280;31738;50.188;8.524;2024-01-06T02:00:32;97637.44;;;5.94;85.66
46007;BME280;31738;50.188;8.524;2024-01-06T02:02:59;97635.31;;;5.96;85.66
46007;BME280;31738;50.188;8.524;2024-01-06T02:05:24;97637.97;;;5.96;85.74
46007;BME280;31738;50.188;8.524;2024-01-06T02:07:50;97648.09;;;5.94;85.58
46007;BME280;31738;50.188;8.524;2024-01-06T02:10:17;97648.09;;;5.94;85.89
46007;BME280;31738;50.188;8.524;2024-01-06T02:12:43;97642.75;;;5.94;85.94
46007;BME280;31738;50.188;8.524;2024-01-06T02:15:08;97639.06;;;5.95;85.78
46007;BME280;31738;50.188;8.524;2024-01-06T02:17:34;97640.09;;;5.94;85.82
46007;BME280;31738;50.188;8.524;2024-01-06T02:19:59;97642.22;;;5.97;85.44
46007;BME280;31738;50.188;8.524;2024-01-06T02:22:25;97635.59;;;5.99;85.74
46007;BME280;31738;50.188;8.524;2024-01-06T02:24:50;97641.13;;;6.03;86.06
46007;BME280;31738;50.188;8.524;2024-01-06T02:27:15;97639.00;;;6.05;85.92
46007;BME280;31738;50.188;8.524;2024-01-06T02:29:41;97647.53;;;6.07;86.05
46007;BME280;31738;50.188;8.524;2024-01-06T02:32:06;97645.38;;;6.09;85.98
46007;BME280;31738;50.188;8.524;2024-01-06T02:34:32;97653.09;;;6.10;85.91
46007;BME280;31738;50.188;8.524;2024-01-06T02:36:58;97648.31;;;6.12;85.76
46007;BME280;31738;50.188;8.524;2024-01-06T02:39:23;97641.91;;;6.13;86.12
46007;BME280;31738;50.188;8.524;2024-01-06T02:41:49;97654.94;;;6.15;85.55
46007;BME280;31738;50.188;8.524;2024-01-06T02:44:15;97655.75;;;6.15;85.91
46007;BME280;31738;50.188;8.524;2024-01-06T02:46:40;97648.56;;;6.16;86.02
46007;BME280;31738;50.188;8.524;2024-01-06T02:49:07;97660.81;;;6.17;85.88
46007;BME280;31738;50.188;8.524;2024-01-06T02:51:32;97665.59;;;6.15;85.99
46007;BME280;31738;50.188;8.524;2024-01-06T02:53:58;97678.63;;;6.16;85.74
46007;BME280;31738;50.188;8.524;2024-01-06T02:56:23;97680.25;;;6.17;85.83
46007;BME280;31738;50.188;8.524;2024-01-06T02:58:49;97675.69;;;6.18;86.04
46007;BME280;31738;50.188;8.524;2024-01-06T03:01:14;97678.09;;;6.19;86.35
46007;BME280;31738;50.188;8.524;2024-01-06T03:03:39;97680.47;;;6.21;85.97
46007;BME280;31738;50.188;8.524;2024-01-06T03:06:05;97678.34;;;6.23;85.83
46007;BME280;31738;50.188;8.524;2024-01-06T03:08:31;97674.09;;;6.22;86.02
46007;BME280;31738;50.188;8.524;2024-01-06T03:10:56;97674.38;;;6.25;86.07
46007;BME280;31738;50.188;8.524;2024-01-06T03:13:22;97674.09;;;6.27;85.78
46007;BME280;31738;50.188;8.524;2024-01-06T03:15:47;97673.00;;;6.28;86.04
46007;BME280;31738;50.188;8.524;2024-01-06T03:18:12;97671.94;;;6.29;86.15
46007;BME280;31738;50.188;8.524;2024-01-06T03:20:38;97673.00;;;6.28;85.80
46007;BME280;31738;50.188;8.524;2024-01-06T03:23:03;97673.81;;;6.28;86.10
46007;BME280;31738;50.188;8.524;2024-01-06T03:25:29;97678.88;;;6.30;86.03
46007;BME280;31738;50.188;8.524;2024-01-06T03:27:54;97673.56;;;6.30;86.09
46007;BME280;31738;50.188;8.524;2024-01-06T03:30:20;97668.50;;;6.28;86.42
46007;BME280;31738;50.188;8.524;2024-01-06T03:32:45;97668.22;;;6.30;85.95
46007;BME280;31738;50.188;8.524;2024-01-06T03:35:11;97663.13;;;6.33;85.86
46007;BME280;31738;50.188;8.524;2024-01-06T03:37:36;97671.66;;;6.35;86.10
46007;BME280;31738;50.188;8.524;2024-01-06T03:40:02;97670.31;;;6.38;86.10
46007;BME280;31738;50.188;8.524;2024-01-06T03:42:28;97675.09;;;6.41;86.44
46007;BME280;31738;50.188;8.524;2024-01-06T03:44:53;97666.03;;;6.42;86.04
46007;BME280;31738;50.188;8.524;2024-01-06T03:47:19;97670.03;;;6.44;85.82
46007;BME280;31738;50.188;8.524;2024-01-06T03:49:44;97662.84;;;6.45;86.19
46007;BME280;31738;50.188;8.524;2024-01-06T03:52:10;97676.38;;;6.48;85.79
46007;BME280;31738;50.188;8.524;2024-01-06T03:54:35;97670.28;;;6.48;85.90
46007;BME280;31738;50.188;8.524;2024-01-06T03:57:01;97681.47;;;6.50;85.71
46007;BME280;31738;50.188;8.524;2024-01-06T03:59:26;97687.28;;;6.52;85.58
46007;BME280;31738;50.188;8.524;2024-01-06T04:01:51;97695.00;;;6.53;85.60
46007;BME280;31738;50.188;8.524;2024-01-06T04:04:17;97695.81;;;6.54;85.37
46007;BME280;31738;50.188;8.524;2024-01-06T04:06:42;97703.25;;;6.57;85.44
46007;BME280;31738;50.188;8.524;2024-01-06T04:09:08;97696.06;;;6.57;85.84
46007;BME280;31738;50.188;8.524;2024-01-06T04:11:34;97698.47;;;6.59;85.33
46007;BME280;31738;50.188;8.524;2024-01-06T04:14:00;97700.59;;;6.62;85.28
46007;BME280;31738;50.188;8.524;2024-01-06T04:16:26;97697.94;;;6.62;85.25
46007;BME280;31738;50.188;8.524;2024-01-06T04:18:52;97707.22;;;6.64;85.31
46007;BME280;31738;50.188;8.524;2024-01-06T04:21:18;97688.31;;;6.66;85.03
46007;BME280;31738;50.188;8.524;2024-01-06T04:23:43;97701.34;;;6.67;85.32
46007;BME280;31738;50.188;8.524;2024-01-06T04:26:09;97704.81;;;6.68;85.16
46007;BME280;31738;50.188;8.524;2024-01-06T04:28:35;97689.34;;;6.70;85.24
46007;BME280;31738;50.188;8.524;2024-01-06T04:31:00;97700.81;;;6.70;85.50
46007;BME280;31738;50.188;8.524;2024-01-06T04:33:26;97700.00;;;6.70;85.37
46007;BME280;31738;50.188;8.524;2024-01-06T04:35:51;97688.28;;;6.71;85.00
46007;BME280;31738;50.188;8.524;2024-01-06T04:38:17;97696.28;;;6.71;84.91
46007;BME280;31738;50.188;8.524;2024-01-06T04:40:42;97702.66;;;6.70;85.36
46007;BME280;31738;50.188;8.524;2024-01-06T04:43:08;97705.06;;;6.71;85.24
46007;BME280;31738;50.188;8.524;2024-01-06T04:45:34;97704.28;;;6.71;85.23
46007;BME280;31738;50.188;8.524;2024-01-06T04:47:59;97709.59;;;6.71;85.23
46007;BME280;31738;50.188;8.524;2024-01-06T04:50:25;97703.47;;;6.70;85.25
46007;BME280;31738;50.188;8.524;2024-01-06T04:52:50;97695.19;;;6.72;85.19
46007;BME280;31738;50.188;8.524;2024-01-06T04:55:16;97697.06;;;6.71;85.09
46007;BME280;31738;50.188;8.524;2024-01-06T04:57:42;97691.44;;;6.73;85.24
46007;BME280;31738;50.188;8.524;2024-01-06T05:00:07;97694.13;;;6.73;84.76
46007;BME280;31738;50.188;8.524;2024-01-06T05:02:33;97686.66;;;6.75;84.71
46007;BME280;31738;50.188;8.524;2024-01-06T05:04:59;97689.59;;;6.73;84.79
46007;BME280;31738;50.188;8.524;2024-01-06T05:07:24;97690.41;;;6.74;85.00
46007;BME280;31738;50.188;8.524;2024-01-06T05:09:50;97702.66;;;6.75;84.99
46007;BME280;31738;50.188;8.524;2024-01-06T05:12:15;97699.97;;;6.75;84.71
46007;BME280;31738;50.188;8.524;2024-01-06T05:14:41;97699.97;;;6.75;84.37
46007;BME280;31738;50.188;8.524;2024-01-06T05:17:06;97702.66;;;6.75;84.83
46007;BME280;31738;50.188;8.524;2024-01-06T05:19:33;97710.38;;;6.76;84.51
46007;BME280;31738;50.188;8.524;2024-01-06T05:21:59;97711.16;;;6.77;84.52
46007;BME280;31738;50.188;8.524;2024-01-06T05:24:24;97715.41;;;6.78;84.33
46007;BME280;31738;50.188;8.524;2024-01-06T05:26:50;97721.56;;;6.78;84.69
46007;BME280;31738;50.188;8.524;2024-01-06T05:29:15;97721.56;;;6.78;84.29
46007;BME280;31738;50.188;8.524;2024-01-06T05:31:41;97722.38;;;6.79;84.58
46007;BME280;31738;50.188;8.524;2024-01-06T05:34:06;97709.03;;;6.79;84.72
46007;BME280;31738;50.188;8.524;2024-01-06T05:36:32;97725.53;;;6.81;84.35
46007;BME280;31738;50.188;8.524;2024-01-06T05:38:58;97718.63;;;6.80;84.34
46007;BME280;31738;50.188;8.524;2024-01-06T05:41:26;97720.72;;;6.83;84.47
46007;BME280;31738;50.188;8.524;2024-01-06T05:43:51;97725.25;;;6.82;84.40
46007;BME280;31738;50.188;8.524;2024-01-06T05:46:24;97720.72;;;6.83;84.22
46007;BME280;31738;50.188;8.524;2024-01-06T05:48:49;97724.47;;;6.82;84.67
46007;BME280;31738;50.188;8.524;2024-01-06T05:51:15;97731.38;;;6.83;83.78
46007;BME280;31738;50.188;8.524;2024-01-06T05:53:40;97732.19;;;6.83;84.47
46007;BME280;31738;50.188;8.524;2024-01-06T05:56:07;97736.72;;;6.83;84.22
46007;BME280;31738;50.188;8.524;2024-01-06T05:58:34;97736.44;;;6.84;84.17
46007;BME280;31738;50.188;8.524;2024-01-06T06:01:00;97745.25;;;6.85;83.99
46007;BME280;31738;50.188;8.524;2024-01-06T06:03:25;97752.16;;;6.86;83.88
46007;BME280;31738;50.188;8.524;2024-01-06T06:05:51;97753.75;;;6.87;84.14
46007;BME280;31738;50.188;8.524;2024-01-06T06:08:16;97755.91;;;6.85;84.06
46007;BME280;31738;50.188;8.524;2024-01-06T06:10:42;97755.63;;;6.86;84.02
46007;BME280;31738;50.188;8.524;2024-01-06T06:13:24;97752.44;;;6.84;84.28
46007;BME280;31738;50.188;8.524;2024-01-06T06:15:50;97756.69;;;6.85;84.09
46007;BME280;31738;50.188;8.524;2024-01-06T06:18:16;97757.50;;;6.86;84.06
46007;BME280;31738;50.188;8.524;2024-01-06T06:20:41;97759.06;;;6.87;84.24
46007;BME280;31738;50.188;8.524;2024-01-06T06:23:09;97766.28;;;6.86;84.07
46007;BME280;31738;50.188;8.524;2024-01-06T06:25:38;97771.34;;;6.88;84.27
46007;BME280;31738;50.188;8.524;2024-01-06T06:28:03;97764.41;;;6.87;83.87
46007;BME280;31738;50.188;8.524;2024-01-06T06:30:29;97769.75;;;6.87;83.98
46007;BME280;31738;50.188;8.524;2024-01-06T06:32:54;97770.53;;;6.87;83.70
46007;BME280;31738;50.188;8.524;2024-01-06T06:35:20;97768.16;;;6.86;84.30
46007;BME280;31738;50.188;8.524;2024-01-06T06:37:45;97773.47;;;6.86;84.23
46007;BME280;31738;50.188;8.524;2024-01-06T06:40:11;97783.06;;;6.87;84.23
46007;BME280;31738;50.188;8.524;2024-01-06T06:42:36;97789.47;;;6.86;84.23
46007;BME280;31738;50.188;8.524;2024-01-06T06:45:02;97783.63;;;6.84;84.13
46007;BME280;31738;50.188;8.524;2024-01-06T06:47:28;97789.47;;;6.86;84.52
46007;BME280;31738;50.188;8.524;2024-01-06T06:49:53;97798.53;;;6.85;84.48
46007;BME280;31738;50.188;8.524;2024-01-06T06:52:19;97795.88;;;6.85;84.63
46007;BME280;31738;50.188;8.524;2024-01-06T06:54:44;97800.13;;;6.86;84.78
46007;BME280;31738;50.188;8.524;2024-01-06T06:57:10;97799.31;;;6.85;84.43
46007;BME280;31738;50.188;8.524;2024-01-06T06:59:35;97800.94;;;6.86;84.77
46007;BME280;31738;50.188;8.524;2024-01-06T07:02:01;97812.38;;;6.87;84.31
46007;BME280;31738;50.188;8.524;2024-01-06T07:04:26;97820.38;;;6.87;84.66
46007;BME280;31738;50.188;8.524;2024-01-06T07:06:52;97817.44;;;6.88;84.62
46007;BME280;31738;50.188;8.524;2024-01-06T07:09:17;97815.59;;;6.89;84.79
46007;BME280;31738;50.188;8.524;2024-01-06T07:11:43;97820.91;;;6.89;84.57
46007;BME280;31738;50.188;8.524;2024-01-06T07:14:08;97820.09;;;6.88;84.73
46007;BME280;31738;50.188;8.524;2024-01-06T07:16:34;97820.09;;;6.88;84.99
46007;BME280;31738;50.188;8.524;2024-01-06T07:18:59;97820.91;;;6.89;85.12
46007;BME280;31738;50.188;8.524;2024-01-06T07:21:25;97825.44;;;6.88;85.09
46007;BME280;31738;50.188;8.524;2024-01-06T07:23:50;97829.97;;;6.88;85.05
46007;BME280;31738;50.188;8.524;2024-01-06T07:26:16;97826.25;;;6.89;85.12
46007;BME280;31738;50.188;8.524;2024-01-06T07:28:41;97832.66;;;6.88;85.08
46007;BME280;31738;50.188;8.524;2024-01-06T07:31:07;97827.59;;;6.86;85.36
46007;BME280;31738;50.188;8.524;2024-01-06T07:33:32;97828.66;;;6.85;85.40
46007;BME280;31738;50.188;8.524;2024-01-06T07:35:58;97832.66;;;6.83;85.58
46007;BME280;31738;50.188;8.524;2024-01-06T07:38:23;97841.19;;;6.85;85.18
46007;BME280;31738;50.188;8.524;2024-01-06T07:40:48;97842.78;;;6.86;85.28
46007;BME280;31738;50.188;8.524;2024-01-06T07:43:14;97839.03;;;6.87;85.26
46007;BME280;31738;50.188;8.524;2024-01-06T07:45:40;97837.19;;;6.87;85.51
46007;BME280;31738;50.188;8.524;2024-01-06T07:48:06;97837.97;;;6.88;85.43
46007;BME280;31738;50.188;8.524;2024-01-06T07:50:32;97850.50;;;6.87;85.26
46007;BME280;31738;50.188;8.524;2024-01-06T07:52:57;97850.22;;;6.89;85.42
46007;BME280;31738;50.188;8.524;2024-01-06T07:55:23;97859.81;;;6.90;85.46
46007;BME280;31738;50.188;8.524;2024-01-06T07:57:48;97854.47;;;6.90;85.30
46007;BME280;31738;50.188;8.524;2024-01-06T08:00:14;97858.75;;;6.91;85.52
46007;BME280;31738;50.188;8.524;2024-01-06T08:02:40;97858.50;;;6.92;85.71
46007;BME280;31738;50.188;8.524;2024-01-06T08:05:06;97863.53;;;6.94;85.48
46007;BME280;31738;50.188;8.524;2024-01-06T08:07:32;97874.22;;;6.94;85.39
46007;BME280;31738;50.188;8.524;2024-01-06T08:09:58;97878.19;;;6.96;85.40
46007;BME280;31738;50.188;8.524;2024-01-06T08:12:23;97885.38;;;6.96;84.97
46007;BME280;31738;50.188;8.524;2024-01-06T08:14:49;97885.38;;;6.96;85.43
46007;BME280;31738;50.188;8.524;2024-01-06T08:17:14;97883.53;;;6.96;85.91
46007;BME280;31738;50.188;8.524;2024-01-06T08:19:40;97893.91;;;6.98;85.26
46007;BME280;31738;50.188;8.524;2024-01-06T08:22:07;97895.50;;;6.99;85.10
46007;BME280;31738;50.188;8.524;2024-01-06T08:24:32;97895.22;;;7.00;85.27
46007;BME280;31738;50.188;8.524;2024-01-06T08:26:58;97902.94;;;7.02;85.48
46007;BME280;31738;50.188;8.524;2024-01-06T08:29:24;97890.44;;;7.03;85.36
46007;BME280;31738;50.188;8.524;2024-01-06T08:31:50;97903.22;;;7.06;85.37
46007;BME280;31738;50.188;8.524;2024-01-06T08:34:18;97900.81;;;7.09;85.87
46007;BME280;31738;50.188;8.524;2024-01-06T08:36:43;97909.63;;;7.10;85.45
46007;BME280;31738;50.188;8.524;2024-01-06T08:39:09;97909.34;;;7.11;85.76
46007;BME280;31738;50.188;8.524;2024-01-06T08:41:35;97908.00;;;7.14;85.40
46007;BME280;31738;50.188;8.524;2024-01-06T08:44:00;97910.41;;;7.15;85.66
46007;BME280;31738;50.188;8.524;2024-01-06T08:46:26;97910.13;;;7.17;85.68
46007;BME280;31738;50.188;8.524;2024-01-06T08:48:51;97918.66;;;7.19;85.71
46007;BME280;31738;50.188;8.524;2024-01-06T08:51:16;97917.59;;;7.20;85.85
46007;BME280;31738;50.188;8.524;2024-01-06T08:53:42;97918.41;;;7.20;86.15
46007;BME280;31738;50.188;8.524;2024-01-06T08:56:08;97926.13;;;7.22;85.62
46007;BME280;31738;50.188;8.524;2024-01-06T08:58:34;97921.28;;;7.24;85.80
46007;BME280;31738;50.188;8.524;2024-01-06T09:00:59;97926.34;;;7.25;85.96
46007;BME280;31738;50.188;8.524;2024-01-06T09:03:25;97929.56;;;7.27;85.65
46007;BME280;31738;50.188;8.524;2024-01-06T09:05:56;97930.88;;;7.30;85.82
46007;BME280;31738;50.188;8.524;2024-01-06T09:08:23;97925.28;;;7.31;85.66
46007;BME280;31738;50.188;8.524;2024-01-06T09:10:49;97919.41;;;7.34;85.42
46007;BME280;31738;50.188;8.524;2024-01-06T09:13:19;97918.31;;;7.40;85.54
46007;BME280;31738;50.188;8.524;2024-01-06T09:15:47;97926.84;;;7.42;85.71
46007;BME280;31738;50.188;8.524;2024-01-06T09:18:12;97925.22;;;7.46;85.65
46007;BME280;31738;50.188;8.524;2024-01-06T09:20:38;97927.34;;;7.49;85.93
46007;BME280;31738;50.188;8.524;2024-01-06T09:23:04;97934.28;;;7.50;85.52
46007;BME280;31738;50.188;8.524;2024-01-06T09:25:29;97938.53;;;7.51;85.90
46007;BME280;31738;50.188;8.524;2024-01-06T09:27:55;97934.81;;;7.52;85.50
46007;BME280;31738;50.188;8.524;2024-01-06T09:30:20;97946.00;;;7.54;85.92
46007;BME280;31738;50.188;8.524;2024-01-06T09:32:46;97944.94;;;7.55;85.89
46007;BME280;31738;50.188;8.524;2024-01-06T09:35:11;97954.00;;;7.54;85.54
46007;BME280;31738;50.188;8.524;2024-01-06T09:37:37;97946.81;;;7.55;85.86
46007;BME280;31738;50.188;8.524;2024-01-06T09:40:03;97951.88;;;7.51;85.95
46007;BME280;31738;50.188;8.524;2024-01-06T09:42:29;97957.75;;;7.48;85.90
46007;BME280;31738;50.188;8.524;2024-01-06T09:44:54;97957.25;;;7.46;85.99
46007;BME280;31738;50.188;8.524;2024-01-06T09:47:22;97957.75;;;7.48;86.20
46007;BME280;31738;50.188;8.524;2024-01-06T09:49:50;97959.38;;;7.49;86.05
46007;BME280;31738;50.188;8.524;2024-01-06T09:52:21;97963.34;;;7.52;85.95
46007;BME280;31738;50.188;8.524;2024-01-06T09:54:51;97962.03;;;7.49;85.89
46007;BME280;31738;50.188;8.524;2024-01-06T09:57:18;97961.50;;;7.47;85.68
46007;BME280;31738;50.188;8.524;2024-01-06T09:59:46;97968.44;;;7.48;86.26
46007;BME280;31738;50.188;8.524;2024-01-06T10:02:14;97968.44;;;7.48;85.74
46007;BME280;31738;50.188;8.524;2024-01-06T10:04:40;97972.19;;;7.47;86.06
46007;BME280;31738;50.188;8.524;2024-01-06T10:07:06;97979.63;;;7.50;85.95
46007;BME280;31738;50.188;8.524;2024-01-06T10:09:31;97979.38;;;7.52;86.07
46007;BME280;31738;50.188;8.524;2024-01-06T10:11:57;97987.34;;;7.57;85.73
46007;BME280;31738;50.188;8.524;2024-01-06T10:14:25;97980.66;;;7.59;85.60
46007;BME280;31738;50.188;8.524;2024-01-06T10:16:52;97990.78;;;7.62;85.43
46007;BME280;31738;50.188;8.524;2024-01-06T10:19:17;97975.31;;;7.64;85.77
46007;BME280;31738;50.188;8.524;2024-01-06T10:21:43;97988.13;;;7.67;85.63
46007;BME280;31738;50.188;8.524;2024-01-06T10:24:09;97973.41;;;7.70;86.08
46007;BME280;31738;50.188;8.524;2024-01-06T10:26:35;97981.69;;;7.73;85.84
46007;BME280;31738;50.188;8.524;2024-01-06T10:29:01;97987.56;;;7.75;85.70
46007;BME280;31738;50.188;8.524;2024-01-06T10:31:26;97982.72;;;7.77;85.70
46007;BME280;31738;50.188;8.524;2024-01-06T10:33:52;97984.84;;;7.80;85.53
46007;BME280;31738;50.188;8.524;2024-01-06T10:36:17;97990.72;;;7.82;86.08
46007;BME280;31738;50.188;8.524;2024-01-06T10:38:46;97999.53;;;7.83;86.02
46007;BME280;31738;50.188;8.524;2024-01-06T10:41:12;98000.06;;;7.85;85.54
46007;BME280;31738;50.188;8.524;2024-01-06T10:43:41;97997.13;;;7.86;85.48
46007;BME280;31738;50.188;8.524;2024-01-06T10:46:09;97999.78;;;7.86;85.36
46007;BME280;31738;50.188;8.524;2024-01-06T10:48:40;97994.97;;;7.88;85.91
46007;BME280;31738;50.188;8.524;2024-01-06T10:51:10;97990.69;;;7.92;85.61
46007;BME280;31738;50.188;8.524;2024-01-06T10:53:36;97987.47;;;7.95;86.08
46007;BME280;31738;50.188;8.524;2024-01-06T10:56:03;97982.09;;;8.00;86.00
46007;BME280;31738;50.188;8.524;2024-01-06T10:58:30;97984.75;;;8.05;85.38
46007;BME280;31738;50.188;8.524;2024-01-06T11:00:57;97979.94;;;8.07;85.90
46007;BME280;31738;50.188;8.524;2024-01-06T11:03:24;97976.72;;;8.10;85.95
46007;BME280;31738;50.188;8.524;2024-01-06T11:05:50;97983.09;;;8.14;85.89
46007;BME280;31738;50.188;8.524;2024-01-06T11:08:17;97975.03;;;8.19;85.84
46007;BME280;31738;50.188;8.524;2024-01-06T11:10:44;97975.03;;;8.19;85.99
46007;BME280;31738;50.188;8.524;2024-01-06T11:13:21;97965.94;;;8.20;85.72
46007;BME280;31738;50.188;8.524;2024-01-06T11:15:49;97971.00;;;8.22;85.40
46007;BME280;31738;50.188;8.524;2024-01-06T11:18:32;97974.78;;;8.26;85.60
46007;BME280;31738;50.188;8.524;2024-01-06T11:23:40;97965.66;;;8.22;85.65
46007;BME280;31738;50.188;8.524;2024-01-06T11:26:06;97968.06;;;8.28;86.42
46007;BME280;31738;50.188;8.524;2024-01-06T11:28:43;97963.22;;;8.35;85.72
46007;BME280;31738;50.188;8.524;2024-01-06T11:31:08;97968.56;;;8.35;85.46
46007;BME280;31738;50.188;8.524;2024-01-06T11:33:41;97961.31;;;8.41;85.50
46007;BME280;31738;50.188;8.524;2024-01-06T11:36:10;97962.13;;;8.41;85.46
46007;BME280;31738;50.188;8.524;2024-01-06T11:38:39;97966.38;;;8.42;86.12
46007;BME280;31738;50.188;8.524;2024-01-06T11:41:08;97968.25;;;8.42;86.02
46007;BME280;31738;50.188;8.524;2024-01-06T11:43:38;97963.72;;;8.42;85.96
46007;BME280;31738;50.188;8.524;2024-01-06T11:46:07;97975.50;;;8.36;86.04
46007;BME280;31738;50.188;8.524;2024-01-06T11:48:34;97961.06;;;8.37;86.56
46007;BME280;31738;50.188;8.524;2024-01-06T11:50:59;97971.19;;;8.40;86.16
46007;BME280;31738;50.188;8.524;2024-01-06T11:53:26;97961.31;;;8.41;86.38
46007;BME280;31738;50.188;8.524;2024-01-06T11:55:53;97960.50;;;8.40;86.62
46007;BME280;31738;50.188;8.524;2024-01-06T11:58:18;97953.84;;;8.43;86.51
46007;BME280;31738;50.188;8.524;2024-01-06T12:00:43;97958.06;;;8.49;86.01
46007;BME280;31738;50.188;8.524;2024-01-06T12:03:09;97957.78;;;8.50;86.41
46007;BME280;31738;50.188;8.524;2024-01-06T12:05:35;97952.16;;;8.52;86.67
46007;BME280;31738;50.188;8.524;2024-01-06T12:08:02;97951.03;;;8.58;86.64
46007;BME280;31738;50.188;8.524;2024-01-06T12:10:31;97948.09;;;8.59;86.66
46007;BME280;31738;50.188;8.524;2024-01-06T12:13:06;97950.19;;;8.62;85.91
46007;BME280;31738;50.188;8.524;2024-01-06T12:15:33;97952.88;;;8.62;86.13
46007;BME280;31738;50.188;8.524;2024-01-06T12:18:03;97946.97;;;8.65;86.01
46007;BME280;31738;50.188;8.524;2024-01-06T12:20:29;97949.09;;;8.63;86.61
46007;BME280;31738;50.188;8.524;2024-01-06T12:22:55;97950.19;;;8.62;85.76
46007;BME280;31738;50.188;8.524;2024-01-06T12:25:22;97943.75;;;8.63;86.51
46007;BME280;31738;50.188;8.524;2024-01-06T12:27:48;97952.31;;;8.65;86.39
46007;BME280;31738;50.188;8.524;2024-01-06T12:30:22;97960.84;;;8.68;86.46
46007;BME280;31738;50.188;8.524;2024-01-06T12:32:49;97962.19;;;8.65;86.65
46007;BME280;31738;50.188;8.524;2024-01-06T12:35:15;97963.53;;;8.68;86.11
46007;BME280;31738;50.188;8.524;2024-01-06T12:37:42;97956.00;;;8.69;86.50
46007;BME280;31738;50.188;8.524;2024-01-06T12:40:09;97960.28;;;8.71;86.52
46007;BME280;31738;50.188;8.524;2024-01-06T12:51:46;97958.69;;;8.69;86.05
46007;BME280;31738;50.188;8.524;2024-01-06T12:54:41;97963.25;;;8.69;86.32
46007;BME280;31738;50.188;8.524;2024-01-06T12:57:45;97969.94;;;8.66;86.26
46007;BME280;31738;50.188;8.524;2024-01-06T13:00:40;97964.59;;;8.66;86.56
46007;BME280;31738;50.188;8.524;2024-01-06T13:03:13;97973.16;;;8.63;85.78
46007;BME280;31738;50.188;8.524;2024-01-06T13:10:37;97981.31;;;8.43;86.49
46007;BME280;31738;50.188;8.524;2024-01-06T13:13:29;97978.94;;;8.42;86.05
46007;BME280;31738;50.188;8.524;2024-01-06T13:16:29;97984.56;;;8.40;86.58
46007;BME280;31738;50.188;8.524;2024-01-06T13:19:48;97988.88;;;8.36;86.55
46007;BME280;31738;50.188;8.524;2024-01-06T13:22:24;97990.72;;;8.36;86.91
46007;BME280;31738;50.188;8.524;2024-01-06T13:25:14;97993.13;;;8.37;86.45